createdAt,value
2023-02-06T00:03:47.654Z,101257.84
2023-02-06T00:08:50.601Z,101245.88
2023-02-06T00:13:53.563Z,101242.44
2023-02-06T00:18:59.549Z,101248.81
2023-02-06T00:24:03.381Z,101246.94
2023-02-06T00:29:06.353Z,101252.97
2023-02-06T00:34:10.635Z,101246.94
2023-02-06T00:39:15.801Z,101252.25
2023-02-06T00:44:18.762Z,101237.59
2023-02-06T00:49:23.268Z,101235.63
2023-02-06T00:54:27.067Z,101240.16
2023-02-06T00:59:29.970Z,101232.81
2023-02-06T01:04:35.554Z,101238.69
2023-02-06T01:09:38.601Z,101242.47
2023-02-06T01:14:41.609Z,101246.47
2023-02-06T01:19:48.918Z,101242.84
2023-02-06T01:24:51.948Z,101238.66
2023-02-06T01:29:55.040Z,101222.59
2023-02-06T01:34:59.317Z,101224.50
2023-02-06T01:40:02.238Z,101238.44
2023-02-06T01:45:39.016Z,101231.91
2023-02-06T01:50:47.494Z,101250.19
2023-02-06T01:55:53.720Z,101247.38
2023-02-06T02:00:58.637Z,101253.78
2023-02-06T02:06:08.686Z,101270.28
2023-02-06T02:11:16.171Z,101276.31
2023-02-06T02:16:24.309Z,101266.69
2023-02-06T02:21:53.584Z,101251.13
2023-02-06T02:27:32.227Z,101233.09
2023-02-06T02:32:52.656Z,101237.28
2023-02-06T02:38:05.074Z,101216.06
2023-02-06T02:43:17.543Z,101207.81
2023-02-06T02:48:25.430Z,101194.16
2023-02-06T02:53:29.922Z,101182.34
2023-02-06T02:58:36.575Z,101180.81
2023-02-06T03:03:44.651Z,101168.28
2023-02-06T03:08:57.827Z,101171.72
2023-02-06T03:14:07.392Z,101156.53
2023-02-06T03:19:15.286Z,101165.47
2023-02-06T03:24:23.666Z,101153.69
2023-02-06T03:29:29.222Z,101158.47
2023-02-06T03:34:39.005Z,101161.03
2023-02-06T03:39:43.575Z,101169.25
2023-02-06T03:44:50.634Z,101167.97
2023-02-06T03:49:56.269Z,101168.63
2023-02-06T03:55:05.022Z,101173.28
2023-02-06T04:00:09.041Z,101174.25
2023-02-06T04:05:19.383Z,101161.50
2023-02-06T04:10:26.113Z,101166.13
2023-02-06T04:15:29.382Z,101158.69
2023-02-06T04:20:32.836Z,101148.31
2023-02-06T04:25:37.424Z,101141.75
2023-02-06T04:30:40.899Z,101146.41
2023-02-06T04:35:43.933Z,101156.97
2023-02-06T04:40:48.217Z,101154.31
2023-02-06T04:45:51.194Z,101154.69
2023-02-06T04:50:54.173Z,101174.59
2023-02-06T04:56:04.361Z,101183.00
2023-02-06T05:01:08.087Z,101199.72
2023-02-06T05:06:11.030Z,101187.53
2023-02-06T05:11:15.332Z,101193.69
2023-02-06T05:16:18.896Z,101183.97
2023-02-06T05:21:22.034Z,101184.38
2023-02-06T05:26:26.248Z,101164.16
2023-02-06T05:31:29.281Z,101168.34
2023-02-06T05:36:32.246Z,101176.75
2023-02-06T05:41:36.581Z,101188.16
2023-02-06T05:46:39.568Z,101186.19
2023-02-06T05:51:42.645Z,101182.50
2023-02-06T05:56:46.911Z,101174.72
2023-02-06T06:01:49.850Z,101178.63
2023-02-06T06:06:52.916Z,101164.41
2023-02-06T06:11:57.234Z,101164.28
2023-02-06T06:17:00.259Z,101158.09
2023-02-06T06:22:03.255Z,101152.06
2023-02-06T06:27:10.577Z,101146.31
2023-02-06T06:32:13.459Z,101145.19
2023-02-06T06:37:16.348Z,101152.00
2023-02-06T06:42:20.670Z,101161.81
2023-02-06T06:47:23.537Z,101166.00
2023-02-06T06:52:26.440Z,101169.19
2023-02-06T06:57:33.179Z,101164.63
2023-02-06T07:02:36.123Z,101165.47
2023-02-06T07:07:40.163Z,101164.03
2023-02-06T07:12:44.576Z,101173.34
2023-02-06T07:17:47.591Z,101162.75
2023-02-06T07:22:50.525Z,101161.19
2023-02-06T07:27:54.775Z,101157.53
2023-02-06T07:32:57.686Z,101163.59
2023-02-06T07:38:00.586Z,101146.38
2023-02-06T07:43:07.393Z,101149.16
2023-02-06T07:48:11.970Z,101143.22
2023-02-06T07:53:14.877Z,101150.88
2023-02-06T07:58:19.161Z,101145.91
2023-02-06T08:03:22.170Z,101145.25
2023-02-06T08:08:25.061Z,101153.97
2023-02-06T08:13:29.326Z,101156.88
2023-02-06T08:18:32.287Z,101160.06
2023-02-06T08:23:35.426Z,101160.97
2023-02-06T08:28:42.141Z,101158.06
2023-02-06T08:33:45.781Z,101162.72
2023-02-06T08:38:48.794Z,101162.72
2023-02-06T08:43:55.368Z,101164.97
2023-02-06T08:48:59.039Z,101147.47
2023-02-06T08:54:04.326Z,101144.63
2023-02-06T08:59:10.726Z,101122.59
2023-02-06T09:04:14.968Z,101120.22
2023-02-06T09:09:18.011Z,101111.75
2023-02-06T09:14:22.317Z,101113.81
2023-02-06T09:19:25.629Z,101107.78
2023-02-06T09:24:30.204Z,101100.97
2023-02-06T09:29:34.705Z,101117.75
2023-02-06T09:34:37.746Z,101115.75
2023-02-06T09:39:40.609Z,101123.97
2023-02-06T09:44:49.259Z,101140.53
2023-02-06T09:49:55.191Z,101138.22
2023-02-06T09:55:04.151Z,101135.72
2023-02-06T10:00:15.749Z,101140.56
2023-02-06T10:05:26.296Z,101145.69
2023-02-06T10:10:37.850Z,101140.72
2023-02-06T10:15:47.084Z,101125.13
2023-02-06T10:20:54.645Z,101110.63
2023-02-06T10:26:06.097Z,101103.44
2023-02-06T10:31:22.509Z,101098.09
2023-02-06T10:36:46.218Z,101093.66
2023-02-06T10:41:57.913Z,101096.09
2023-02-06T10:47:02.509Z,101096.63
2023-02-06T10:52:26.685Z,101103.72
2023-02-06T10:57:31.053Z,101115.69
2023-02-06T11:02:44.006Z,101118.00
2023-02-06T11:07:49.814Z,101108.38
2023-02-06T11:13:03.960Z,101111.34
2023-02-06T11:18:14.856Z,101106.13
2023-02-06T11:23:20.084Z,101084.47
2023-02-06T11:28:24.850Z,101071.03
2023-02-06T11:33:37.940Z,101067.94
2023-02-06T11:38:55.445Z,101085.94
2023-02-06T11:44:02.690Z,101085.06
2023-02-06T11:49:23.475Z,101091.94
2023-02-06T11:54:28.996Z,101090.19
2023-02-06T11:59:34.954Z,101100.56
2023-02-06T12:04:41.827Z,101097.25
2023-02-06T12:09:44.819Z,101082.41
2023-02-06T12:14:50.454Z,101088.06
2023-02-06T12:20:02.501Z,101086.56
2023-02-06T12:25:06.017Z,101080.88
2023-02-06T12:30:27.869Z,101076.84
2023-02-06T12:35:37.675Z,101074.59
2023-02-06T12:40:49.443Z,101076.63
2023-02-06T12:46:00.743Z,101062.16
2023-02-06T12:51:14.844Z,101073.22
2023-02-06T12:56:26.261Z,101073.53
2023-02-06T13:01:48.911Z,101070.94
2023-02-06T13:06:55.930Z,101075.56
2023-02-06T13:12:09.516Z,101058.41
2023-02-06T13:17:19.053Z,101048.34
2023-02-06T13:22:35.332Z,101057.38
2023-02-06T13:27:40.256Z,101037.53
2023-02-06T13:32:46.334Z,101043.94
2023-02-06T13:38:10.538Z,101052.41
2023-02-06T13:43:19.685Z,101046.09
2023-02-06T13:48:52.938Z,101057.91
2023-02-06T13:54:20.722Z,101069.63
2023-02-06T13:59:29.224Z,101075.84
2023-02-06T14:04:33.392Z,101084.47
2023-02-06T14:10:13.276Z,101090.81
2023-02-06T14:15:26.595Z,101087.94
2023-02-06T14:20:39.169Z,101101.34
2023-02-06T14:25:57.121Z,101095.19
2023-02-06T14:31:12.583Z,101111.88
2023-02-06T14:36:35.350Z,101102.47
2023-02-06T14:41:40.431Z,101113.66
2023-02-06T14:46:43.413Z,101118.63
2023-02-06T14:51:51.620Z,101120.56
2023-02-06T14:56:59.362Z,101126.63
2023-02-06T15:02:14.907Z,101132.66
2023-02-06T15:07:24.715Z,101125.69
2023-02-06T15:12:32.159Z,101128.72
2023-02-06T15:17:35.136Z,101171.63
2023-02-06T15:22:38.126Z,101181.22
2023-02-06T15:27:42.540Z,101183.69
2023-02-06T15:32:49.483Z,101195.03
2023-02-06T15:37:53.886Z,101201.97
2023-02-06T15:42:58.655Z,101216.38
2023-02-06T15:48:10.006Z,101216.44
2023-02-06T15:53:20.669Z,101222.63
2023-02-06T15:58:26.170Z,101232.72
2023-02-06T16:03:31.419Z,101234.22
2023-02-06T16:08:38.145Z,101242.31
2023-02-06T16:13:46.581Z,101258.03
2023-02-06T16:18:52.267Z,101258.31
2023-02-06T16:24:08.046Z,101273.09
2023-02-06T16:29:25.634Z,101277.69
2023-02-06T16:34:40.940Z,101277.22
2023-02-06T16:39:44.819Z,101264.75
2023-02-06T16:44:51.324Z,101262.13
2023-02-06T16:49:54.207Z,101257.78
2023-02-06T16:54:58.949Z,101251.56
2023-02-06T17:00:05.127Z,101275.66
2023-02-06T17:05:08.680Z,101291.00
2023-02-06T17:10:14.748Z,101294.78
2023-02-06T17:15:20.314Z,101301.41
2023-02-06T17:20:30.169Z,101304.53
2023-02-06T17:25:33.496Z,101308.75
2023-02-06T17:30:38.634Z,101305.75
2023-02-06T17:35:41.751Z,101307.66
2023-02-06T17:40:44.854Z,101316.81
2023-02-06T17:45:49.251Z,101321.53
2023-02-06T17:50:52.156Z,101325.59
2023-02-06T17:55:55.096Z,101321.84
2023-02-06T18:00:59.429Z,101328.84
2023-02-06T18:06:03.349Z,101337.75
2023-02-06T18:11:11.515Z,101337.19
2023-02-06T18:16:17.400Z,101321.72
2023-02-06T18:21:21.910Z,101344.31
2023-02-06T18:26:25.259Z,101359.22
2023-02-06T18:31:33.178Z,101360.50
2023-02-06T18:36:38.026Z,101350.38
2023-02-06T18:41:58.629Z,101352.88
2023-02-06T18:47:02.931Z,101342.78
2023-02-06T18:52:07.033Z,101336.13
2023-02-06T18:57:09.981Z,101345.16
2023-02-06T19:02:14.383Z,101343.88
2023-02-06T19:07:17.359Z,101339.94
2023-02-06T19:12:20.295Z,101342.31
2023-02-06T19:17:25.903Z,101331.03
2023-02-06T19:22:28.851Z,101320.81
2023-02-06T19:27:32.127Z,101333.38
2023-02-06T19:32:36.551Z,101345.16
2023-02-06T19:37:40.149Z,101356.91
2023-02-06T19:42:43.127Z,101371.00
2023-02-06T19:47:47.401Z,101372.78
2023-02-06T19:52:50.476Z,101415.16
2023-02-06T19:57:53.347Z,101422.31
2023-02-06T20:02:57.576Z,101426.94
2023-02-06T20:08:00.869Z,101431.88
2023-02-06T20:13:03.811Z,101428.78
2023-02-06T20:18:08.131Z,101441.50
2023-02-06T20:23:11.064Z,101463.22
2023-02-06T20:28:14.203Z,101482.53
2023-02-06T20:33:18.481Z,101487.44
2023-02-06T20:38:21.430Z,101474.75
2023-02-06T20:43:24.341Z,101486.75
2023-02-06T20:48:28.637Z,101486.56
2023-02-06T20:53:31.919Z,101482.09
2023-02-06T20:58:34.867Z,101477.38
2023-02-06T21:03:39.702Z,101464.84
2023-02-06T21:08:43.359Z,101457.31
2023-02-06T21:13:46.272Z,101452.88
2023-02-06T21:18:50.582Z,101453.22
2023-02-06T21:23:55.760Z,101452.13
2023-02-06T21:29:00.230Z,101459.06
2023-02-06T21:34:08.268Z,101472.28
2023-02-06T21:39:15.434Z,101457.03
2023-02-06T21:44:18.680Z,101452.53
2023-02-06T21:49:23.593Z,101465.19
2023-02-06T21:54:26.847Z,101472.81
2023-02-06T21:59:32.680Z,101458.31
2023-02-06T22:04:36.982Z,101454.03
2023-02-06T22:09:40.163Z,101463.63
2023-02-06T22:14:43.073Z,101460.47
2023-02-06T22:19:48.784Z,101463.91
2023-02-06T22:24:51.732Z,101457.41
2023-02-06T22:29:54.839Z,101463.72
2023-02-06T22:35:01.273Z,101468.44
2023-02-06T22:40:04.376Z,101467.59
2023-02-06T22:45:08.486Z,101471.63
2023-02-06T22:50:12.741Z,101466.50
2023-02-06T22:55:15.766Z,101462.63
2023-02-06T23:00:18.633Z,101473.81
2023-02-06T23:05:22.893Z,101468.44
2023-02-06T23:10:25.785Z,101463.44
2023-02-06T23:15:28.652Z,101459.28
2023-02-06T23:20:32.859Z,101457.81
2023-02-06T23:25:36.220Z,101458.47
2023-02-06T23:30:39.481Z,101470.63
2023-02-06T23:35:44.635Z,101477.16
2023-02-06T23:40:48.719Z,101487.41
2023-02-06T23:45:51.652Z,101478.78
2023-02-06T23:50:55.932Z,101481.34
2023-02-06T23:55:59.089Z,101478.09
